Highland City, Florida
Current Conditions -  °F | °C
As of 8:50 AM on Friday 31 Oct 2014 (Local Time) from KBOW Reporting Station
Few Clouds Few Clouds  
Wind Chill: 66°   Ceiling: Unl
Heat Index: 66°   Visibility: 10mi
Dew Point: 59°   Wind: 3mph
Humidity: 78%   Direction: 320°NW
Pressure: 29.9"   Gusts: NA
Location:  27.97°N, 81.88°W
Report Text: KBOW 311250Z 32003KT 10SM FEW040 FEW150 19/15 A2990
Loading
Personal Weather Stations






























Interactive Weather Map
Tropical Storm Tracking
New forecast layout! Learn more

10-Day Weather Forecast

Advertisements
Track Severe Weather on mobile